Time;durP1;ratioP1;P1;durP2;ratioP2;P2;SDS_P1;SDS_P2;PMS_P1;PMS_P2;Temp;Humidity;BMP_temperature;BMP_pressure;BME280_temperature;BME280_humidity;BME280_pressure;Samples;Min_cycle;Max_cycle;Signal;HPM_P1;HPM_P2
2024/03/23 00:01:47;;;;;;;30.20;20.90;;;12.70;1.00;;;;;;5045604;28;20029;-75
2024/03/23 00:04:14;;;;;;;30.15;19.52;;;12.70;1.00;;;;;;5026035;28;20535;-75
2024/03/23 00:06:40;;;;;;;28.25;20.10;;;12.70;1.00;;;;;;5045932;28;20583;-75
2024/03/23 00:09:07;;;;;;;26.02;19.75;;;12.70;1.00;;;;;;5044363;28;20107;-75
2024/03/23 00:11:37;;;;;;;29.23;22.27;;;12.70;1.00;;;;;;5027594;28;20052;-76
2024/03/23 00:14:04;;;;;;;27.77;21.52;;;12.70;1.00;;;;;;5044355;28;20551;-75
2024/03/23 00:16:31;;;;;;;29.08;20.80;;;12.70;1.00;;;;;;5045068;28;20080;-76
2024/03/23 00:18:58;;;;;;;30.67;20.65;;;12.70;1.00;;;;;;5047327;28;20024;-75
2024/03/23 00:21:25;;;;;;;32.30;21.25;;;12.70;1.00;;;;;;5035772;28;20060;-76
2024/03/23 00:23:51;;;;;;;28.50;19.48;;;12.70;1.00;;;;;;5035829;28;20040;-76
2024/03/23 00:26:18;;;;;;;29.67;20.13;;;12.60;1.00;;;;;;5045848;28;20080;-76
2024/03/23 00:28:45;;;;;;;29.02;20.80;;;12.60;1.00;;;;;;5044975;28;20050;-75
2024/03/23 00:31:12;;;;;;;32.08;21.13;;;12.50;1.00;;;;;;5036316;28;20061;-76
2024/03/23 00:33:38;;;;;;;28.23;20.33;;;12.50;1.00;;;;;;5043931;28;20029;-76
2024/03/23 00:36:05;;;;;;;32.60;22.92;;;12.40;1.00;;;;;;5045977;28;20071;-76
2024/03/23 00:38:31;;;;;;;31.98;21.05;;;12.50;1.00;;;;;;5022114;28;20060;-75
2024/03/23 00:40:58;;;;;;;27.95;18.95;;;12.50;1.00;;;;;;5043060;28;20454;-76
2024/03/23 00:43:28;;;;;;;30.02;20.23;;;12.50;1.00;;;;;;5033309;28;20028;-75
2024/03/23 00:45:54;;;;;;;30.92;21.40;;;12.50;1.00;;;;;;5042857;28;20061;-76
2024/03/23 00:48:21;;;;;;;27.23;19.40;;;12.40;1.00;;;;;;5036317;28;20040;-76
2024/03/23 00:50:48;;;;;;;30.42;20.13;;;12.40;1.00;;;;;;5021065;28;20140;-76
2024/03/23 00:53:14;;;;;;;28.92;20.80;;;12.40;1.00;;;;;;5042531;28;20059;-76
2024/03/23 00:55:41;;;;;;;28.33;21.17;;;12.30;1.00;;;;;;5045839;28;20443;-76
2024/03/23 00:58:07;;;;;;;28.90;20.02;;;12.40;1.00;;;;;;5042845;28;20022;-75
2024/03/23 01:00:33;;;;;;;27.73;20.35;;;12.30;1.00;;;;;;5046465;28;20033;-75
2024/03/23 01:02:58;;;;;;;25.90;19.02;;;12.30;1.00;;;;;;5045414;28;20071;-76
2024/03/23 01:05:24;;;;;;;28.10;19.80;;;12.30;1.00;;;;;;5041900;28;20025;-76
2024/03/23 01:07:50;;;;;;;30.30;20.00;;;12.30;1.00;;;;;;5026285;28;20025;-76
2024/03/23 01:10:16;;;;;;;28.85;19.75;;;12.30;1.00;;;;;;5022397;28;20033;-76
2024/03/23 01:12:41;;;;;;;28.15;18.90;;;12.20;1.00;;;;;;5024585;28;20121;-76
2024/03/23 01:15:10;;;;;;;29.15;20.58;;;12.20;1.00;;;;;;5026951;28;20028;-76
2024/03/23 01:17:36;;;;;;;28.02;20.30;;;12.20;1.00;;;;;;5034323;28;20056;-75
2024/03/23 01:20:02;;;;;;;29.00;20.25;;;12.20;1.00;;;;;;5041665;28;20489;-75
2024/03/23 01:22:28;;;;;;;28.17;20.27;;;12.20;1.00;;;;;;5045193;28;20492;-75
2024/03/23 01:24:54;;;;;;;28.02;19.13;;;12.30;1.00;;;;;;5020801;28;20036;-76
2024/03/23 01:27:19;;;;;;;28.23;20.63;;;12.20;1.00;;;;;;5041668;28;20025;-75
2024/03/23 01:29:45;;;;;;;31.33;20.80;;;12.30;1.00;;;;;;5044986;28;20079;-76
2024/03/23 01:32:11;;;;;;;30.70;20.83;;;12.30;1.00;;;;;;5032677;28;20018;-76
2024/03/23 01:34:36;;;;;;;26.50;19.83;;;12.30;1.00;;;;;;5034738;28;20420;-75
2024/03/23 01:37:02;;;;;;;28.48;18.63;;;12.30;1.00;;;;;;5045211;28;20152;-76
2024/03/23 01:39:28;;;;;;;28.75;19.90;;;12.30;1.00;;;;;;5045371;28;20354;-76
2024/03/23 01:41:54;;;;;;;27.25;20.20;;;12.20;1.00;;;;;;5043753;28;20040;-76
2024/03/23 01:44:19;;;;;;;28.00;20.02;;;12.20;1.00;;;;;;5024436;28;20040;-76
2024/03/23 01:46:45;;;;;;;26.60;18.42;;;12.20;1.00;;;;;;5041848;28;20116;-76
2024/03/23 01:49:12;;;;;;;28.52;19.45;;;12.20;1.00;;;;;;5046521;28;20048;-76
2024/03/23 01:51:38;;;;;;;31.30;20.60;;;12.20;1.00;;;;;;5041291;28;20018;-76
2024/03/23 01:54:06;;;;;;;28.67;18.75;;;12.20;1.00;;;;;;5044746;28;20032;-75
2024/03/23 01:56:41;;;;;;;26.30;19.92;;;12.10;1.00;;;;;;5041144;28;20116;-75
2024/03/23 01:59:06;;;;;;;25.65;20.20;;;12.10;2.30;;;;;;5045460;28;20026;-76
2024/03/23 02:01:35;;;;;;;26.40;19.58;;;12.00;6.80;;;;;;5032177;28;20068;-75
2024/03/23 02:04:01;;;;;;;28.48;19.67;;;12.00;6.90;;;;;;5034395;28;20429;-75
2024/03/23 02:06:27;;;;;;;30.60;19.23;;;12.00;10.70;;;;;;5045014;28;20067;-76
2024/03/23 02:08:54;;;;;;;28.50;20.58;;;11.90;10.50;;;;;;5040937;28;20029;-75
2024/03/23 02:11:20;;;;;;;29.23;19.63;;;11.90;11.10;;;;;;5034911;28;20494;-75
2024/03/23 02:13:46;;;;;;;26.77;19.52;;;11.90;15.10;;;;;;5041024;28;20316;-76
2024/03/23 02:16:13;;;;;;;26.85;19.58;;;11.90;14.50;;;;;;5043773;28;20032;-75
2024/03/23 02:18:39;;;;;;;28.83;19.77;;;11.80;15.80;;;;;;5044886;28;20028;-75
2024/03/23 02:21:04;;;;;;;30.45;20.83;;;11.80;17.20;;;;;;5040720;28;20444;-76
2024/03/23 02:23:33;;;;;;;28.63;20.10;;;11.80;16.50;;;;;;5021137;28;20038;-75
2024/03/23 02:25:59;;;;;;;27.80;19.35;;;11.80;19.90;;;;;;5026230;28;20420;-76
2024/03/23 02:28:25;;;;;;;31.60;19.40;;;11.80;19.70;;;;;;5045997;28;20025;-75
2024/03/23 02:30:51;;;;;;;30.05;20.90;;;11.80;20.10;;;;;;5042536;28;20049;-76
2024/03/23 02:33:34;;;;;;;31.40;20.05;;;11.70;20.80;;;;;;5044773;28;20037;-75
2024/03/23 02:36:11;;;;;;;28.50;20.38;;;11.80;18.00;;;;;;5044353;28;20499;-75
2024/03/23 02:38:36;;;;;;;31.70;20.73;;;11.80;17.90;;;;;;5044267;28;20576;-75
2024/03/23 02:41:05;;;;;;;29.25;20.73;;;11.70;17.90;;;;;;5043726;28;20031;-76
2024/03/23 02:43:31;;;;;;;31.95;20.38;;;11.70;17.40;;;;;;5040193;28;20033;-76
2024/03/23 02:45:57;;;;;;;31.67;20.17;;;11.70;18.60;;;;;;5043768;28;20025;-75
2024/03/23 02:48:23;;;;;;;31.42;20.00;;;11.70;17.90;;;;;;5026307;28;20027;-76
2024/03/23 02:50:50;;;;;;;30.48;19.17;;;11.70;16.90;;;;;;5043402;28;20024;-76
2024/03/23 02:53:16;;;;;;;33.10;21.80;;;11.70;17.30;;;;;;5030731;28;20079;-75
2024/03/23 02:55:41;;;;;;;28.75;20.17;;;11.80;15.80;;;;;;5021603;28;20034;-76
2024/03/23 02:58:07;;;;;;;28.25;19.85;;;11.70;14.80;;;;;;5044994;28;20477;-76
2024/03/23 03:00:32;;;;;;;30.92;19.63;;;11.70;15.20;;;;;;5041544;28;20036;-76
2024/03/23 03:02:58;;;;;;;28.13;20.55;;;11.70;14.50;;;;;;5041680;28;20021;-76
2024/03/23 03:05:24;;;;;;;28.77;20.75;;;11.70;15.20;;;;;;5042508;28;20377;-75
2024/03/23 03:07:50;;;;;;;30.40;19.88;;;11.70;15.90;;;;;;5039189;28;20488;-76
2024/03/23 03:10:19;;;;;;;25.55;18.98;;;11.70;15.50;;;;;;5042675;28;20025;-76
2024/03/23 03:12:44;;;;;;;26.13;18.52;;;11.70;15.40;;;;;;5040560;28;20120;-76
2024/03/23 03:15:10;;;;;;;27.92;18.77;;;11.70;15.10;;;;;;5043143;28;20116;-75
2024/03/23 03:17:36;;;;;;;25.60;19.23;;;11.70;15.30;;;;;;5041395;28;20021;-76
2024/03/23 03:20:02;;;;;;;27.05;20.48;;;11.60;16.80;;;;;;5043484;28;20035;-76
2024/03/23 03:22:27;;;;;;;27.08;19.73;;;11.60;15.60;;;;;;5030186;28;20048;-75
2024/03/23 03:24:53;;;;;;;28.75;19.92;;;11.60;16.80;;;;;;5024918;28;20028;-75
2024/03/23 03:27:19;;;;;;;29.23;19.45;;;11.60;18.00;;;;;;5040348;28;20506;-76
2024/03/23 03:29:45;;;;;;;31.92;19.92;;;11.50;20.60;;;;;;5042058;28;20036;-76
2024/03/23 03:32:11;;;;;;;28.35;20.00;;;11.50;19.90;;;;;;5023169;28;20040;-75
2024/03/23 03:34:37;;;;;;;27.63;19.55;;;11.50;19.60;;;;;;5041768;28;20474;-75
2024/03/23 03:37:03;;;;;;;28.98;20.00;;;11.50;20.80;;;;;;5048117;28;20025;-75
2024/03/23 03:39:28;;;;;;;28.65;19.13;;;11.50;21.10;;;;;;5025985;28;20025;-76
2024/03/23 03:41:54;;;;;;;26.55;18.70;;;11.50;19.30;;;;;;5026396;28;20442;-75
2024/03/23 03:44:20;;;;;;;27.80;19.60;;;11.50;17.60;;;;;;5039508;28;20033;-75
2024/03/23 03:46:45;;;;;;;25.90;19.00;;;11.50;16.00;;;;;;5046121;28;20554;-76
2024/03/23 03:49:11;;;;;;;32.42;19.73;;;11.50;16.70;;;;;;5052439;28;20527;-76
2024/03/23 03:51:37;;;;;;;28.20;19.67;;;11.50;11.10;;;;;;5046219;28;20120;-75
2024/03/23 03:54:02;;;;;;;28.52;19.23;;;11.50;6.30;;;;;;5048991;28;20028;-75
2024/03/23 03:56:31;;;;;;;32.13;20.50;;;11.50;7.40;;;;;;5046781;28;20034;-75
2024/03/23 03:58:57;;;;;;;36.70;21.10;;;11.60;6.00;;;;;;5052833;28;20560;-76
2024/03/23 04:01:22;;;;;;;28.50;19.40;;;11.60;4.40;;;;;;5051450;28;20116;-75
2024/03/23 04:03:48;;;;;;;27.60;18.95;;;11.60;2.20;;;;;;5049381;28;20034;-75
2024/03/23 04:06:19;;;;;;;26.65;20.38;;;11.60;1.00;;;;;;5047785;28;20022;-76
2024/03/23 04:08:45;;;;;;;30.90;19.70;;;11.60;1.00;;;;;;5028257;28;20202;-76
2024/03/23 04:11:10;;;;;;;28.73;19.05;;;11.60;1.00;;;;;;5047656;28;20301;-75
2024/03/23 04:13:36;;;;;;;25.13;18.70;;;11.60;1.00;;;;;;5048381;28;20220;-75
2024/03/23 04:16:05;;;;;;;28.92;19.92;;;11.60;1.00;;;;;;5031713;28;20041;-75
2024/03/23 04:18:31;;;;;;;27.85;19.33;;;11.60;1.00;;;;;;5049538;28;20025;-75
2024/03/23 04:20:57;;;;;;;32.58;17.98;;;11.60;1.00;;;;;;5038667;28;20439;-76
2024/03/23 04:23:22;;;;;;;28.42;21.15;;;11.50;5.60;;;;;;5047028;28;20025;-75
2024/03/23 04:25:48;;;;;;;28.77;20.17;;;11.50;3.30;;;;;;5045365;28;20032;-76
2024/03/23 04:28:14;;;;;;;30.50;20.17;;;11.50;1.70;;;;;;5051759;28;20381;-75
2024/03/23 04:30:39;;;;;;;38.05;20.33;;;11.50;1.00;;;;;;5045184;28;20053;-76
2024/03/23 04:33:05;;;;;;;29.75;20.25;;;11.50;1.10;;;;;;5046162;28;20122;-75
2024/03/23 04:35:31;;;;;;;28.92;19.98;;;11.50;2.30;;;;;;5027219;28;20045;-75
2024/03/23 04:37:58;;;;;;;31.00;20.55;;;11.50;6.70;;;;;;5034111;28;20029;-76
2024/03/23 04:40:24;;;;;;;28.48;20.30;;;11.40;8.10;;;;;;5046856;28;20036;-76
2024/03/23 04:42:50;;;;;;;30.23;20.13;;;11.40;12.00;;;;;;5049643;28;20166;-76
2024/03/23 04:45:16;;;;;;;30.27;19.95;;;11.40;13.50;;;;;;5047472;28;20516;-75
2024/03/23 04:47:41;;;;;;;29.92;19.33;;;11.40;12.20;;;;;;5045728;28;20025;-75
2024/03/23 04:50:07;;;;;;;31.33;21.30;;;11.40;13.90;;;;;;5044767;28;20079;-75
2024/03/23 04:52:33;;;;;;;31.83;20.45;;;11.40;13.90;;;;;;5033873;28;20043;-76
2024/03/23 04:54:59;;;;;;;30.65;20.55;;;11.30;17.70;;;;;;5027921;28;20123;-75
2024/03/23 04:57:25;;;;;;;29.20;20.23;;;11.30;19.30;;;;;;5045347;28;20040;-75
2024/03/23 04:59:50;;;;;;;29.70;19.55;;;11.30;22.20;;;;;;5043545;28;20059;-75
2024/03/23 05:02:16;;;;;;;30.98;21.42;;;11.30;19.20;;;;;;5031529;28;20013;-75
2024/03/23 05:04:42;;;;;;;31.10;22.30;;;11.30;20.30;;;;;;5035405;28;20096;-75
2024/03/23 05:07:08;;;;;;;32.25;21.38;;;11.30;24.20;;;;;;5033240;28;20032;-76
2024/03/23 05:09:33;;;;;;;31.10;21.00;;;11.30;21.70;;;;;;5044526;28;20018;-76
2024/03/23 05:12:03;;;;;;;34.30;22.20;;;11.30;24.40;;;;;;5045816;28;20028;-76
2024/03/23 05:14:28;;;;;;;32.70;22.30;;;11.30;24.60;;;;;;5041933;28;20071;-76
2024/03/23 05:16:55;;;;;;;35.72;22.88;;;11.30;26.10;;;;;;5043695;28;20033;-76
2024/03/23 05:19:22;;;;;;;31.25;22.02;;;11.20;27.70;;;;;;5047740;28;20022;-76
2024/03/23 05:21:48;;;;;;;33.25;21.98;;;11.30;29.60;;;;;;5034325;28;20029;-76
2024/03/23 05:24:13;;;;;;;34.03;22.70;;;11.30;29.20;;;;;;5042716;28;20021;-76
2024/03/23 05:26:39;;;;;;;32.08;22.52;;;11.30;29.40;;;;;;5044590;28;20025;-76
2024/03/23 05:29:06;;;;;;;32.38;21.15;;;11.20;30.50;;;;;;5045725;28;20024;-76
2024/03/23 05:31:32;;;;;;;34.97;22.92;;;11.30;31.70;;;;;;5041805;28;20013;-76
2024/03/23 05:33:58;;;;;;;35.28;24.10;;;11.20;33.20;;;;;;5035238;28;20035;-77
2024/03/23 05:36:24;;;;;;;35.50;23.25;;;11.20;34.40;;;;;;5041060;28;20029;-76
2024/03/23 05:38:50;;;;;;;32.92;22.63;;;11.30;32.80;;;;;;5041924;28;20030;-76
2024/03/23 05:41:16;;;;;;;35.03;23.85;;;11.30;33.00;;;;;;5044486;28;20485;-76
2024/03/23 05:43:41;;;;;;;33.63;24.30;;;11.30;34.20;;;;;;5032456;28;20025;-76
2024/03/23 05:46:08;;;;;;;38.58;24.33;;;11.30;37.30;;;;;;5034170;28;20072;-77
2024/03/23 05:48:34;;;;;;;38.60;24.63;;;11.30;39.10;;;;;;5032910;28;20054;-76
2024/03/23 05:51:00;;;;;;;33.15;24.92;;;11.30;40.10;;;;;;5033495;28;20017;-76
2024/03/23 05:53:26;;;;;;;34.80;24.35;;;11.30;38.10;;;;;;5041378;28;20031;-76
2024/03/23 05:55:59;;;;;;;38.33;26.35;;;11.30;37.90;;;;;;5047776;28;20480;-76
2024/03/23 05:58:26;;;;;;;35.40;25.52;;;11.30;38.20;;;;;;5046891;28;20025;-77
2024/03/23 06:00:59;;;;;;;36.78;25.30;;;11.30;38.10;;;;;;5042828;28;20025;-76
2024/03/23 06:03:25;;;;;;;35.53;24.58;;;11.40;38.30;;;;;;5040991;28;20024;-76
2024/03/23 06:05:51;;;;;;;37.72;23.70;;;11.40;39.90;;;;;;5044750;28;20025;-76
2024/03/23 06:08:17;;;;;;;36.42;25.50;;;11.40;39.60;;;;;;5033103;28;20027;-76
2024/03/23 06:10:45;;;;;;;43.05;26.20;;;11.40;41.80;;;;;;5021002;28;20029;-76
2024/03/23 06:13:14;;;;;;;35.05;23.98;;;11.40;40.50;;;;;;5040807;28;20104;-76
2024/03/23 06:15:40;;;;;;;36.13;24.83;;;11.50;39.00;;;;;;5040732;28;20041;-76
2024/03/23 06:18:07;;;;;;;34.70;26.17;;;11.50;39.30;;;;;;5044674;28;20025;-76
2024/03/23 06:20:34;;;;;;;40.83;28.13;;;11.50;37.50;;;;;;5041563;28;20444;-76
2024/03/23 06:23:02;;;;;;;41.55;26.35;;;11.60;39.50;;;;;;5043348;28;20021;-76
2024/03/23 06:25:27;;;;;;;34.67;24.58;;;11.60;38.20;;;;;;5022671;28;20048;-76
2024/03/23 06:27:53;;;;;;;36.58;26.80;;;11.60;39.50;;;;;;5043693;28;20110;-77
2024/03/23 06:30:19;;;;;;;40.08;26.05;;;11.70;42.60;;;;;;5044073;28;20024;-76
2024/03/23 06:32:45;;;;;;;39.35;25.08;;;11.70;41.20;;;;;;5018944;28;20477;-77
2024/03/23 06:35:10;;;;;;;38.53;24.98;;;11.70;36.70;;;;;;5040367;28;20035;-77
2024/03/23 06:37:36;;;;;;;36.70;26.27;;;11.80;35.40;;;;;;5022137;28;20024;-76
2024/03/23 06:40:04;;;;;;;38.40;25.35;;;11.90;33.80;;;;;;5043032;28;20051;-76
2024/03/23 06:42:30;;;;;;;42.75;25.48;;;11.90;31.40;;;;;;5023232;28;20032;-76
2024/03/23 06:44:56;;;;;;;35.53;23.83;;;11.90;30.40;;;;;;5021386;28;20022;-76
2024/03/23 06:47:21;;;;;;;41.97;26.67;;;12.00;35.90;;;;;;5044185;28;20025;-76
2024/03/23 06:49:48;;;;;;;39.33;24.50;;;12.10;33.30;;;;;;5043579;28;20076;-77
2024/03/23 06:52:13;;;;;;;37.92;26.23;;;12.20;34.30;;;;;;5042353;28;20025;-76
2024/03/23 06:54:39;;;;;;;41.88;26.45;;;12.20;27.30;;;;;;5019882;28;20017;-77
2024/03/23 06:57:05;;;;;;;40.03;25.02;;;12.20;23.90;;;;;;5040204;28;20439;-77
2024/03/23 06:59:30;;;;;;;40.05;25.65;;;12.30;23.00;;;;;;5043427;28;20025;-77
2024/03/23 07:01:56;;;;;;;39.17;24.70;;;12.30;23.80;;;;;;5043576;28;20370;-77
2024/03/23 07:04:25;;;;;;;39.70;24.02;;;12.40;20.90;;;;;;5030411;28;20106;-76
2024/03/23 07:06:53;;;;;;;37.33;24.65;;;12.50;18.80;;;;;;5039841;28;20104;-76
2024/03/23 07:09:23;;;;;;;42.83;24.85;;;12.50;16.30;;;;;;5039759;28;20043;-77
2024/03/23 07:11:49;;;;;;;44.58;25.33;;;12.60;15.60;;;;;;5021478;28;20452;-77
2024/03/23 07:14:14;;;;;;;37.50;24.25;;;12.60;15.50;;;;;;5043359;28;20090;-77
2024/03/23 07:16:40;;;;;;;37.40;23.85;;;12.70;7.70;;;;;;5040051;28;20029;-77
2024/03/23 07:19:06;;;;;;;39.08;23.88;;;12.70;7.80;;;;;;5042461;28;20029;-77
2024/03/23 07:21:31;;;;;;;42.45;24.52;;;12.80;5.10;;;;;;5024321;28;20084;-77
2024/03/23 07:23:57;;;;;;;40.35;24.55;;;12.90;7.00;;;;;;5031257;28;20120;-77
2024/03/23 07:26:23;;;;;;;37.20;24.60;;;12.90;1.00;;;;;;5040891;28;20097;-77
2024/03/23 07:28:49;;;;;;;38.88;24.52;;;13.00;3.50;;;;;;5043176;28;20030;-77
2024/03/23 07:31:15;;;;;;;36.20;22.60;;;13.00;2.20;;;;;;5032240;28;20013;-76
2024/03/23 07:33:45;;;;;;;35.38;23.13;;;13.10;3.00;;;;;;5040536;28;20445;-77
2024/03/23 07:36:11;;;;;;;41.97;24.42;;;13.20;1.00;;;;;;5041969;28;20013;-77
2024/03/23 07:38:37;;;;;;;39.58;24.98;;;13.20;1.00;;;;;;5040402;28;20035;-77
2024/03/23 07:41:11;;;;;;;40.55;24.63;;;13.30;1.00;;;;;;5042552;28;20025;-77
2024/03/23 07:43:43;;;;;;;42.05;25.63;;;13.30;1.00;;;;;;5039550;28;20064;-77
2024/03/23 07:46:08;;;;;;;40.20;26.65;;;13.50;17.40;;;;;;5041016;28;20117;-77
2024/03/23 07:48:34;;;;;;;40.10;26.33;;;13.60;25.00;;;;;;5041426;28;20116;-77
2024/03/23 07:51:03;;;;;;;43.85;27.08;;;13.60;24.80;;;;;;5030821;28;20061;-77
2024/03/23 07:53:29;;;;;;;44.13;26.25;;;13.70;17.30;;;;;;5031866;28;20036;-76
2024/03/23 07:56:00;;;;;;;42.38;24.95;;;13.70;26.60;;;;;;5043142;28;20032;-76
2024/03/23 07:58:27;;;;;;;50.60;26.73;;;13.80;22.60;;;;;;5031845;28;20052;-76
2024/03/23 08:01:03;;;;;;;46.42;23.17;;;13.90;19.70;;;;;;5040151;28;20029;-76
2024/03/23 08:03:28;;;;;;;43.67;22.50;;;14.00;1.00;;;;;;5030995;28;20025;-76
2024/03/23 08:05:54;;;;;;;39.13;25.35;;;14.00;1.00;;;;;;5040724;28;20104;-77
2024/03/23 08:08:20;;;;;;;37.75;24.33;;;14.10;12.20;;;;;;5041151;28;20021;-76
2024/03/23 08:10:55;;;;;;;43.28;25.98;;;14.10;4.40;;;;;;5040224;28;20025;-77
2024/03/23 08:13:21;;;;;;;43.60;23.40;;;14.10;6.00;;;;;;5040853;28;20420;-76
2024/03/23 08:15:47;;;;;;;46.75;26.83;;;14.20;1.00;;;;;;5040696;28;20030;-76
2024/03/23 08:18:15;;;;;;;41.67;23.98;;;14.20;1.00;;;;;;5042839;28;20032;-77
2024/03/23 08:20:41;;;;;;;42.03;25.60;;;14.20;1.00;;;;;;5040073;28;20038;-76
2024/03/23 08:23:07;;;;;;;39.05;25.85;;;14.20;1.00;;;;;;5043844;28;20373;-77
2024/03/23 08:25:34;;;;;;;42.08;22.75;;;14.30;1.00;;;;;;5025667;28;20028;-76
2024/03/23 08:28:00;;;;;;;43.42;24.08;;;14.40;1.00;;;;;;5046177;28;20124;-76
2024/03/23 08:30:26;;;;;;;39.85;23.85;;;14.40;1.00;;;;;;5046262;28;20056;-76
2024/03/23 08:32:52;;;;;;;43.67;23.90;;;14.50;21.50;;;;;;5042588;28;20346;-76
2024/03/23 08:35:18;;;;;;;40.72;23.65;;;14.60;19.90;;;;;;5042465;28;20083;-76
2024/03/23 08:37:43;;;;;;;47.30;26.80;;;14.60;17.60;;;;;;5046575;28;20104;-77
2024/03/23 08:40:10;;;;;;;48.90;25.98;;;14.70;8.10;;;;;;5045495;28;20079;-76
2024/03/23 08:42:35;;;;;;;40.90;23.58;;;14.70;1.00;;;;;;5025461;28;20024;-76
2024/03/23 08:45:05;;;;;;;45.33;24.35;;;14.80;1.00;;;;;;5044720;28;20021;-76
2024/03/23 08:47:34;;;;;;;41.80;23.83;;;14.80;1.00;;;;;;5044312;28;20017;-76
2024/03/23 08:50:00;;;;;;;41.35;24.17;;;14.80;1.00;;;;;;5045762;28;20046;-76
2024/03/23 08:52:28;;;;;;;40.92;23.25;;;14.80;1.00;;;;;;5043630;28;20492;-77
2024/03/23 08:54:54;;;;;;;38.65;22.20;;;14.80;1.00;;;;;;5035282;28;20017;-76
2024/03/23 08:57:23;;;;;;;38.55;23.40;;;14.80;1.00;;;;;;5033931;28;20382;-77
2024/03/23 08:59:49;;;;;;;39.25;23.17;;;14.80;1.00;;;;;;5044048;28;20091;-76
2024/03/23 09:02:15;;;;;;;39.20;23.23;;;14.90;1.00;;;;;;5043872;28;20052;-76
2024/03/23 09:04:40;;;;;;;40.60;22.27;;;14.90;1.00;;;;;;5043570;28;20049;-76
2024/03/23 09:07:06;;;;;;;42.30;22.13;;;15.10;1.00;;;;;;5044324;28;20601;-76
2024/03/23 09:09:32;;;;;;;43.45;22.48;;;15.20;1.00;;;;;;5033091;28;20071;-76
2024/03/23 09:11:58;;;;;;;40.65;22.67;;;15.30;1.00;;;;;;5045175;28;20091;-76
2024/03/23 09:14:23;;;;;;;43.70;23.17;;;15.40;1.00;;;;;;5041050;28;20025;-76
2024/03/23 09:16:52;;;;;;;41.92;23.33;;;15.40;1.00;;;;;;5043268;28;20059;-76
2024/03/23 09:19:18;;;;;;;37.08;22.58;;;15.40;1.00;;;;;;5022250;28;20021;-77
2024/03/23 09:21:44;;;;;;;38.20;22.88;;;15.40;1.00;;;;;;5043667;28;20361;-76
2024/03/23 09:24:09;;;;;;;37.45;22.17;;;15.40;1.00;;;;;;5041151;28;20026;-77
2024/03/23 09:26:35;;;;;;;44.60;24.10;;;15.40;1.00;;;;;;5034483;28;20025;-77
2024/03/23 09:29:01;;;;;;;47.35;24.17;;;15.50;1.00;;;;;;5044698;28;20540;-76
2024/03/23 09:31:26;;;;;;;40.13;25.08;;;15.70;1.00;;;;;;5042620;28;20021;-76
2024/03/23 09:33:52;;;;;;;43.30;25.45;;;15.60;1.00;;;;;;5041613;28;20121;-77
2024/03/23 09:36:18;;;;;;;39.47;25.00;;;15.60;1.00;;;;;;5033496;28;20025;-76
2024/03/23 09:38:44;;;;;;;41.40;25.15;;;15.60;1.00;;;;;;5021117;28;20060;-76
2024/03/23 09:41:09;;;;;;;41.90;24.80;;;15.50;1.00;;;;;;5041856;28;20018;-76
2024/03/23 09:43:35;;;;;;;44.90;25.05;;;15.80;1.00;;;;;;5044348;28;20039;-76
2024/03/23 09:46:02;;;;;;;46.63;26.90;;;15.70;1.00;;;;;;5041244;28;20034;-76
2024/03/23 09:48:28;;;;;;;46.65;26.73;;;15.90;1.00;;;;;;5030586;28;20036;-76
2024/03/23 09:50:54;;;;;;;44.20;26.27;;;16.00;1.00;;;;;;5044899;28;20025;-76
2024/03/23 09:53:20;;;;;;;44.33;26.30;;;16.00;99.90;;;;;;5041580;28;20469;-76
2024/03/23 09:55:46;;;;;;;43.45;24.45;;;16.10;99.90;;;;;;5045505;28;20095;-76
2024/03/23 09:58:16;;;;;;;38.85;25.27;;;16.10;99.90;;;;;;5047956;28;20029;-77
2024/03/23 10:00:43;;;;;;;43.67;23.27;;;16.10;99.90;;;;;;5041606;28;20076;-76
2024/03/23 10:03:10;;;;;;;41.17;26.52;;;16.10;99.90;;;;;;5043558;28;20033;-76
2024/03/23 10:05:37;;;;;;;42.42;24.48;;;16.10;99.90;;;;;;5041830;28;20017;-77
2024/03/23 10:08:21;;;;;;;44.70;25.85;;;16.20;99.90;;;;;;5033641;28;20114;-77
2024/03/23 10:10:47;;;;;;;41.95;26.55;;;16.10;99.90;;;;;;5039940;28;20429;-76
2024/03/23 10:13:33;;;;;;;33.97;23.52;;;16.20;1.00;;;;;;5044244;28;20033;-77
2024/03/23 10:15:59;;;;;;;43.42;26.33;;;16.30;99.90;;;;;;5042763;28;20108;-77
2024/03/23 10:18:28;;;;;;;44.22;24.73;;;16.40;99.90;;;;;;5032276;28;20052;-77
2024/03/23 10:21:05;;;;;;;38.53;23.88;;;16.30;99.90;;;;;;5040599;28;20096;-77
2024/03/23 10:23:35;;;;;;;42.50;24.15;;;16.50;99.90;;;;;;5040458;28;20033;-77
2024/03/23 10:26:25;;;;;;;40.97;24.42;;;16.60;99.90;;;;;;5026969;28;20064;-76
2024/03/23 10:29:01;;;;;;;36.22;22.67;;;16.60;99.90;;;;;;5043651;28;20017;-76
2024/03/23 10:31:31;;;;;;;38.53;22.38;;;16.60;99.90;;;;;;5040582;28;20021;-76
2024/03/23 10:34:00;;;;;;;33.25;21.35;;;16.70;99.90;;;;;;5040380;28;20029;-76
2024/03/23 10:36:26;;;;;;;35.20;22.38;;;16.80;99.90;;;;;;5040420;28;20250;-76
2024/03/23 10:38:54;;;;;;;35.50;24.05;;;16.90;39.90;;;;;;5034080;28;20554;-76
2024/03/23 10:41:20;;;;;;;40.92;22.73;;;16.80;47.90;;;;;;5040485;28;20056;-76
2024/03/23 10:43:49;;;;;;;35.72;22.83;;;16.70;99.90;;;;;;5043589;28;20041;-77
2024/03/23 10:46:15;;;;;;;32.17;21.55;;;16.90;99.90;;;;;;5039413;28;20029;-76
2024/03/23 10:48:41;;;;;;;35.33;21.60;;;17.00;99.90;;;;;;5043156;28;20051;-76
2024/03/23 10:51:10;;;;;;;37.58;22.75;;;17.00;99.90;;;;;;5040807;28;20021;-76
2024/03/23 10:53:39;;;;;;;37.75;23.02;;;17.20;32.40;;;;;;5043156;28;20025;-76
2024/03/23 10:56:07;;;;;;;35.92;22.10;;;17.20;32.10;;;;;;5043373;28;20036;-76
2024/03/23 10:58:40;;;;;;;38.72;22.75;;;17.40;99.90;;;;;;5030751;28;20099;-77
2024/03/23 11:01:06;;;;;;;35.97;21.73;;;17.60;99.90;;;;;;5022099;28;20125;-76
2024/03/23 11:03:36;;;;;;;40.17;21.40;;;17.60;2.20;;;;;;5043234;28;20113;-76
2024/03/23 11:06:03;;;;;;;37.38;23.00;;;17.60;1.00;;;;;;5023677;28;20033;-76
2024/03/23 11:08:32;;;;;;;35.70;22.13;;;17.60;32.60;;;;;;5031597;28;20112;-77
2024/03/23 11:11:25;;;;;;;34.50;22.55;;;17.70;14.30;;;;;;5039728;28;20444;-77
2024/03/23 11:13:52;;;;;;;35.13;22.38;;;17.80;99.90;;;;;;5040725;28;20511;-77
2024/03/23 11:16:35;;;;;;;34.78;20.63;;;17.80;1.00;;;;;;5030700;28;20079;-77
2024/03/23 11:19:36;;;;;;;24.90;17.58;;;18.00;1.00;;;;;;5044436;28;20029;-77
2024/03/23 11:22:03;;;;;;;20.92;12.77;;;18.10;99.90;;;;;;5022915;28;20026;-77
2024/03/23 11:24:29;;;;;;;16.40;12.25;;;18.20;99.90;;;;;;5045617;28;20036;-77
2024/03/23 11:26:55;;;;;;;19.95;12.68;;;18.20;69.50;;;;;;5041823;28;20029;-77
2024/03/23 11:29:20;;;;;;;14.90;11.10;;;18.20;20.00;;;;;;5025979;28;20389;-77
2024/03/23 11:31:51;;;;;;;20.70;12.93;;;18.20;1.00;;;;;;5018533;28;20108;-77
2024/03/23 11:34:20;;;;;;;16.00;11.60;;;18.10;6.80;;;;;;5039795;28;20025;-77
2024/03/23 11:36:50;;;;;;;20.70;13.10;;;18.00;1.00;;;;;;5044487;28;20059;-77
2024/03/23 11:39:20;;;;;;;30.05;18.42;;;18.00;1.00;;;;;;5045056;28;20025;-77
2024/03/23 11:41:50;;;;;;;25.52;18.08;;;18.10;99.90;;;;;;5043128;28;20537;-77
2024/03/23 11:44:22;;;;;;;33.85;18.90;;;18.30;99.90;;;;;;5031915;28;20033;-77
2024/03/23 11:46:48;;;;;;;29.23;18.77;;;18.30;99.90;;;;;;5032840;28;20044;-77
2024/03/23 11:49:24;;;;;;;28.90;18.23;;;18.40;99.90;;;;;;5050190;28;20088;-77
2024/03/23 11:51:51;;;;;;;30.00;19.67;;;18.50;99.90;;;;;;5030670;28;20025;-77
2024/03/23 11:54:19;;;;;;;28.65;19.30;;;18.50;99.90;;;;;;5032053;28;20132;-77
2024/03/23 11:57:04;;;;;;;26.92;18.23;;;18.70;99.90;;;;;;5026877;28;20025;-77
2024/03/23 11:59:40;;;;;;;27.70;19.40;;;18.50;99.90;;;;;;5047127;28;20020;-76
2024/03/23 12:02:16;;;;;;;33.28;20.45;;;18.40;99.90;;;;;;5051789;28;20025;-76
2024/03/23 12:04:42;;;;;;;28.90;19.38;;;18.40;99.90;;;;;;5052800;28;20246;-77
2024/03/23 12:07:14;;;;;;;29.65;20.50;;;18.70;99.90;;;;;;5052812;28;20028;-77
2024/03/23 12:09:41;;;;;;;26.25;19.33;;;18.80;99.90;;;;;;5033064;28;20044;-77
2024/03/23 12:12:17;;;;;;;36.78;19.85;;;18.80;99.90;;;;;;5053350;28;20033;-77
2024/03/23 12:15:01;;;;;;;27.02;19.08;;;18.90;99.90;;;;;;5043430;28;20021;-77
2024/03/23 12:17:27;;;;;;;41.33;21.33;;;18.70;99.90;;;;;;5037174;28;20036;-77
2024/03/23 12:19:53;;;;;;;33.38;20.65;;;18.60;99.90;;;;;;5045884;28;20397;-77
2024/03/23 12:22:22;;;;;;;29.83;20.92;;;18.40;99.90;;;;;;5035345;28;20104;-77
2024/03/23 12:24:48;;;;;;;32.72;21.35;;;18.40;99.90;;;;;;5043717;28;20074;-77
2024/03/23 12:27:17;;;;;;;30.58;20.20;;;18.30;1.00;;;;;;5045110;28;20028;-77
2024/03/23 12:29:46;;;;;;;39.13;21.45;;;18.30;99.90;;;;;;5044970;28;20025;-77
2024/03/23 12:32:16;;;;;;;32.35;20.90;;;18.40;1.00;;;;;;5045182;28;20104;-77